createdAt,value
2022-09-22T00:01:11.833Z,10.25
2022-09-22T00:03:41.780Z,9.68
2022-09-22T00:06:10.404Z,10.15
2022-09-22T00:08:39.176Z,10.95
2022-09-22T00:11:08.470Z,9.50
2022-09-22T00:13:37.209Z,9.35
2022-09-22T00:16:08.076Z,10.32
2022-09-22T00:18:35.916Z,9.18
2022-09-22T00:21:09.354Z,9.85
2022-09-22T00:23:38.503Z,9.97
2022-09-22T00:26:06.973Z,8.75
2022-09-22T00:28:35.359Z,7.70
2022-09-22T00:31:05.356Z,8.70
2022-09-22T00:33:34.458Z,7.68
2022-09-22T00:36:02.859Z,7.43
2022-09-22T00:38:33.457Z,8.35
2022-09-22T00:41:01.442Z,7.82
2022-09-22T00:43:30.256Z,8.43
2022-09-22T00:45:59.536Z,10.23
2022-09-22T00:48:28.876Z,7.95
2022-09-22T00:50:58.328Z,10.15
2022-09-22T00:53:26.462Z,9.23
2022-09-22T00:55:57.784Z,8.93
2022-09-22T00:58:28.345Z,9.07
2022-09-22T01:00:56.500Z,9.00
2022-09-22T01:03:29.696Z,8.88
2022-09-22T01:05:59.760Z,7.90
2022-09-22T01:08:27.679Z,7.80
2022-09-22T01:10:57.438Z,6.65
2022-09-22T01:13:27.057Z,6.60
2022-09-22T01:16:13.481Z,7.90
2022-09-22T01:18:49.608Z,6.32
2022-09-22T01:21:22.991Z,6.25
2022-09-22T01:24:17.369Z,5.93
2022-09-22T01:27:03.280Z,5.53
2022-09-22T01:29:48.641Z,5.53
2022-09-22T01:32:20.213Z,5.68
2022-09-22T01:34:51.985Z,5.55
2022-09-22T01:37:25.299Z,5.50
2022-09-22T01:39:56.248Z,5.10
2022-09-22T01:42:28.621Z,5.35
2022-09-22T01:44:59.978Z,4.90
2022-09-22T01:47:32.435Z,5.43
2022-09-22T01:50:02.378Z,5.63
2022-09-22T01:52:31.438Z,5.43
2022-09-22T01:55:00.325Z,5.75
2022-09-22T01:57:31.801Z,4.82
2022-09-22T02:00:04.334Z,5.30
2022-09-22T02:02:35.077Z,5.05
2022-09-22T02:05:04.112Z,4.70
2022-09-22T02:07:33.889Z,4.93
2022-09-22T02:10:03.422Z,4.70
2022-09-22T02:12:31.128Z,4.93
2022-09-22T02:14:58.909Z,4.95
2022-09-22T02:17:26.575Z,5.18
2022-09-22T02:19:56.169Z,5.03
2022-09-22T02:22:23.812Z,5.15
2022-09-22T02:24:51.825Z,5.05
2022-09-22T02:27:25.762Z,5.45
2022-09-22T02:29:56.787Z,5.45
2022-09-22T02:32:24.832Z,4.70
2022-09-22T02:34:52.527Z,4.90
2022-09-22T02:37:23.493Z,6.32
2022-09-22T02:39:58.272Z,5.80
2022-09-22T02:42:28.482Z,5.95
2022-09-22T02:44:57.780Z,6.38
2022-09-22T02:47:28.350Z,6.57
2022-09-22T02:49:56.557Z,6.00
2022-09-22T02:52:25.780Z,6.45
2022-09-22T02:54:53.700Z,6.50
2022-09-22T02:57:21.355Z,6.47
2022-09-22T02:59:48.956Z,6.63
2022-09-22T03:02:16.988Z,7.22
2022-09-22T03:04:44.694Z,8.07
2022-09-22T03:07:12.440Z,7.25
2022-09-22T03:09:41.461Z,6.47
2022-09-22T03:12:09.114Z,7.57
2022-09-22T03:14:36.785Z,7.00
2022-09-22T03:17:04.514Z,8.00
2022-09-22T03:19:32.175Z,7.55
2022-09-22T03:21:59.847Z,8.10
2022-09-22T03:24:27.463Z,7.38
2022-09-22T03:26:56.407Z,7.53
2022-09-22T03:29:24.053Z,8.32
2022-09-22T03:31:51.691Z,7.78
2022-09-22T03:34:19.357Z,6.97
2022-09-22T03:36:47.067Z,7.60
2022-09-22T03:39:14.746Z,7.65
2022-09-22T03:41:42.372Z,6.68
2022-09-22T03:44:11.433Z,7.55
2022-09-22T03:46:39.028Z,8.15
2022-09-22T03:49:06.624Z,8.15
2022-09-22T03:51:34.332Z,9.18
2022-09-22T03:54:02.164Z,8.55
2022-09-22T03:56:29.946Z,8.85
2022-09-22T03:58:57.551Z,7.88
2022-09-22T04:01:26.640Z,8.32
2022-09-22T04:03:54.322Z,7.78
2022-09-22T04:06:21.967Z,7.90
2022-09-22T04:08:49.628Z,7.50
2022-09-22T04:11:17.363Z,7.72
2022-09-22T04:13:46.524Z,8.40
2022-09-22T04:16:14.450Z,8.45
2022-09-22T04:18:43.741Z,7.72
2022-09-22T04:21:11.339Z,9.00
2022-09-22T04:23:39.030Z,7.00
2022-09-22T04:26:06.887Z,10.25
2022-09-22T04:28:34.477Z,8.38
2022-09-22T04:31:02.193Z,6.82
2022-09-22T04:33:29.920Z,7.93
2022-09-22T04:35:58.933Z,8.60
2022-09-22T04:38:26.558Z,8.75
2022-09-22T04:40:54.227Z,8.30
2022-09-22T04:43:21.829Z,9.35
2022-09-22T04:45:49.532Z,9.93
2022-09-22T04:48:17.416Z,8.85
2022-09-22T04:50:48.012Z,8.05
2022-09-22T04:53:17.651Z,8.15
2022-09-22T04:55:45.374Z,8.85
2022-09-22T04:58:14.009Z,7.05
2022-09-22T05:00:41.696Z,6.32
2022-09-22T05:03:09.952Z,6.72
2022-09-22T05:05:38.786Z,6.95
2022-09-22T05:08:07.763Z,6.28
2022-09-22T05:10:36.868Z,6.78
2022-09-22T05:13:05.839Z,6.22
2022-09-22T05:15:34.807Z,6.82
2022-09-22T05:18:02.655Z,6.35
2022-09-22T05:20:30.299Z,6.65
2022-09-22T05:22:58.804Z,7.20
2022-09-22T05:25:26.428Z,7.05
2022-09-22T05:27:55.927Z,7.03
2022-09-22T05:30:25.012Z,6.35
2022-09-22T05:32:52.989Z,7.25
2022-09-22T05:35:21.379Z,7.38
2022-09-22T05:37:50.152Z,6.57
2022-09-22T05:40:18.181Z,6.88
2022-09-22T05:42:46.638Z,7.95
2022-09-22T05:45:16.016Z,7.88
2022-09-22T05:47:43.696Z,7.95
2022-09-22T05:50:12.045Z,8.00
2022-09-22T05:52:40.056Z,7.72
2022-09-22T05:55:10.656Z,8.23
2022-09-22T05:57:38.296Z,8.30
2022-09-22T06:00:07.421Z,8.38
2022-09-22T06:02:36.508Z,8.32
2022-09-22T06:05:04.226Z,8.82
2022-09-22T06:07:32.880Z,8.27
2022-09-22T06:10:00.480Z,8.13
2022-09-22T06:12:28.144Z,9.48
2022-09-22T06:14:56.685Z,8.90
2022-09-22T06:17:24.432Z,8.27
2022-09-22T06:19:53.485Z,9.50
2022-09-22T06:22:24.321Z,9.05
2022-09-22T06:24:51.923Z,8.07
2022-09-22T06:27:19.642Z,9.73
2022-09-22T06:29:47.340Z,9.05
2022-09-22T06:32:15.005Z,7.85
2022-09-22T06:34:44.854Z,8.52
2022-09-22T06:37:14.335Z,8.70
2022-09-22T06:39:41.991Z,8.43
2022-09-22T06:42:10.967Z,7.78
2022-09-22T06:44:39.286Z,8.55
2022-09-22T06:47:08.555Z,8.55
2022-09-22T06:49:36.214Z,8.75
2022-09-22T06:52:03.858Z,8.25
2022-09-22T06:54:32.843Z,8.60
2022-09-22T06:57:00.471Z,8.02
2022-09-22T06:59:28.234Z,7.05
2022-09-22T07:01:55.971Z,6.53
2022-09-22T07:04:23.933Z,7.10
2022-09-22T07:06:51.591Z,6.50
2022-09-22T07:09:20.058Z,6.25
2022-09-22T07:11:49.552Z,10.00
2022-09-22T07:14:19.446Z,7.00
2022-09-22T07:16:47.131Z,6.43
2022-09-22T07:19:15.257Z,5.13
2022-09-22T07:21:44.346Z,6.00
2022-09-22T07:24:15.199Z,6.80
2022-09-22T07:26:44.115Z,5.05
2022-09-22T07:29:29.983Z,5.28
2022-09-22T07:32:00.003Z,4.97
2022-09-22T07:34:27.814Z,5.28
2022-09-22T07:36:55.587Z,5.07
2022-09-22T07:39:25.159Z,4.68
2022-09-22T07:41:58.958Z,4.85
2022-09-22T07:44:45.516Z,3.70
2022-09-22T07:47:13.159Z,4.35
2022-09-22T07:49:40.742Z,4.85
2022-09-22T07:52:10.042Z,4.32
2022-09-22T07:54:41.593Z,4.72
2022-09-22T07:57:11.147Z,4.18
2022-09-22T07:59:41.642Z,4.30
2022-09-22T08:02:11.562Z,4.63
2022-09-22T08:04:39.358Z,4.60
2022-09-22T08:07:07.296Z,4.15
2022-09-22T08:09:36.033Z,3.85
2022-09-22T08:12:04.040Z,3.45
2022-09-22T08:14:31.829Z,4.63
2022-09-22T08:20:30.115Z,3.95
2022-09-22T08:23:03.253Z,4.38
2022-09-22T08:25:31.112Z,3.70
2022-09-22T08:27:59.150Z,3.80
2022-09-22T08:30:27.005Z,3.92
2022-09-22T08:32:54.757Z,3.53
2022-09-22T08:35:22.378Z,3.53
2022-09-22T08:37:51.559Z,3.67
2022-09-22T08:40:21.161Z,2.95
2022-09-22T08:42:55.087Z,3.28
2022-09-22T08:45:30.303Z,4.60
2022-09-22T08:48:19.122Z,3.00
2022-09-22T08:51:12.264Z,3.15
2022-09-22T08:53:44.215Z,2.72
2022-09-22T08:56:16.953Z,3.13
2022-09-22T08:58:47.439Z,2.50
2022-09-22T09:01:20.889Z,2.80
2022-09-22T09:04:00.857Z,2.87
2022-09-22T09:06:35.145Z,4.43
2022-09-22T09:11:43.463Z,2.83
2022-09-22T09:14:19.200Z,2.17
2022-09-22T09:16:50.082Z,2.40
2022-09-22T09:19:19.598Z,2.42
2022-09-22T09:21:51.196Z,2.40
2022-09-22T09:27:22.341Z,2.20
2022-09-22T09:29:59.054Z,2.38
2022-09-22T09:32:33.253Z,2.38
2022-09-22T09:37:28.839Z,2.08
2022-09-22T09:39:56.863Z,2.03
2022-09-22T09:42:28.206Z,2.00
2022-09-22T09:45:02.532Z,3.05
2022-09-22T09:47:41.547Z,2.55
2022-09-22T09:50:11.136Z,2.50
2022-09-22T09:52:40.120Z,2.25
2022-09-22T09:55:16.906Z,2.65
2022-09-22T09:57:59.456Z,2.33
2022-09-22T10:00:33.382Z,2.50
2022-09-22T10:03:05.601Z,2.10
2022-09-22T10:05:37.672Z,2.22
2022-09-22T10:08:14.251Z,2.28
2022-09-22T10:10:42.402Z,2.53
2022-09-22T10:13:18.686Z,2.50
2022-09-22T10:16:01.398Z,2.88
2022-09-22T10:18:33.622Z,2.55
2022-09-22T10:21:04.906Z,2.45
2022-09-22T10:23:33.045Z,1.98
2022-09-22T10:26:21.235Z,2.38
2022-09-22T10:29:10.744Z,2.75
2022-09-22T10:31:39.958Z,2.47
2022-09-22T10:34:08.235Z,3.35
2022-09-22T10:36:37.053Z,2.60
2022-09-22T10:39:11.450Z,2.70
2022-09-22T10:41:39.542Z,2.35
2022-09-22T10:44:35.071Z,2.83
2022-09-22T10:47:11.202Z,2.70
2022-09-22T10:49:50.095Z,3.42
2022-09-22T10:52:21.052Z,3.20
2022-09-22T10:54:57.350Z,3.45
2022-09-22T10:57:33.016Z,3.92
2022-09-22T11:00:10.995Z,3.38
2022-09-22T11:02:56.366Z,3.15
2022-09-22T11:05:49.671Z,3.20
2022-09-22T11:08:36.776Z,3.08
2022-09-22T11:11:26.852Z,2.58
2022-09-22T11:14:01.463Z,2.92
2022-09-22T11:16:35.064Z,2.60
2022-09-22T11:19:22.470Z,3.00
2022-09-22T11:21:58.487Z,4.65
2022-09-22T11:24:44.609Z,3.08
2022-09-22T11:27:17.633Z,3.25
2022-09-22T11:29:53.252Z,2.95
2022-09-22T11:32:26.612Z,3.53
2022-09-22T11:35:02.527Z,2.73
2022-09-22T11:37:38.355Z,5.30
2022-09-22T11:40:17.939Z,2.60
2022-09-22T11:42:50.616Z,3.92
2022-09-22T11:45:23.127Z,3.85
2022-09-22T11:47:56.989Z,3.97
2022-09-22T11:50:31.809Z,3.30
2022-09-22T11:53:14.123Z,3.10
2022-09-22T11:55:46.124Z,3.50
2022-09-22T11:58:16.278Z,2.63
2022-09-22T12:00:47.259Z,2.75
2022-09-22T12:03:19.476Z,2.58
2022-09-22T12:05:50.018Z,2.58
2022-09-22T12:08:20.673Z,2.22
2022-09-22T12:10:50.217Z,2.30
2022-09-22T12:13:19.740Z,2.55
2022-09-22T12:15:52.002Z,2.10
2022-09-22T12:18:23.151Z,2.63
2022-09-22T12:20:54.991Z,2.05
2022-09-22T12:23:37.088Z,2.80
2022-09-22T12:26:06.406Z,2.70
2022-09-22T12:28:38.845Z,2.20
2022-09-22T12:31:08.115Z,3.28
2022-09-22T12:33:37.678Z,2.00
2022-09-22T12:36:08.457Z,3.08
2022-09-22T12:38:39.069Z,2.38
2022-09-22T12:41:07.060Z,2.03
2022-09-22T12:43:35.911Z,2.75
2022-09-22T12:46:06.333Z,1.90
2022-09-22T12:48:35.098Z,2.63
2022-09-22T12:51:21.363Z,1.98
2022-09-22T12:53:50.605Z,2.33
2022-09-22T12:56:36.273Z,2.38
2022-09-22T12:59:29.340Z,2.42
2022-09-22T13:02:12.028Z,2.13
2022-09-22T13:04:40.125Z,2.25
2022-09-22T13:07:31.646Z,1.95
2022-09-22T13:10:14.146Z,3.10
2022-09-22T13:13:03.244Z,2.90
2022-09-22T13:15:32.059Z,2.38
2022-09-22T13:18:00.498Z,2.50
2022-09-22T13:20:31.511Z,2.83
2022-09-22T13:23:05.720Z,2.88
2022-09-22T13:28:07.516Z,2.78
2022-09-22T13:30:35.654Z,2.80
2022-09-22T13:33:03.287Z,2.65
2022-09-22T13:35:32.806Z,2.70
2022-09-22T13:38:00.795Z,2.47
2022-09-22T13:40:29.551Z,2.17
2022-09-22T13:42:59.158Z,2.25
2022-09-22T13:45:30.530Z,2.10
2022-09-22T13:48:04.887Z,2.28
2022-09-22T13:50:40.522Z,2.38
2022-09-22T13:53:08.473Z,2.40
2022-09-22T13:55:37.334Z,2.00
2022-09-22T13:58:06.413Z,3.30
2022-09-22T14:01:08.718Z,2.78
2022-09-22T14:03:36.376Z,3.17
2022-09-22T14:06:04.593Z,3.65
2022-09-22T14:08:33.370Z,2.30
2022-09-22T14:11:04.824Z,2.30
2022-09-22T14:13:43.374Z,2.50
2022-09-22T14:16:26.631Z,2.80
2022-09-22T14:18:59.139Z,2.05
2022-09-22T14:21:26.965Z,2.15
2022-09-22T14:23:54.784Z,1.92
2022-09-22T14:26:27.677Z,2.40
2022-09-22T14:28:57.903Z,2.17
2022-09-22T14:31:27.650Z,2.20
2022-09-22T14:33:57.440Z,2.15
2022-09-22T14:36:27.968Z,1.70
2022-09-22T14:39:08.171Z,2.25
2022-09-22T14:41:38.425Z,2.00
2022-09-22T14:44:27.468Z,2.90
2022-09-22T14:46:56.225Z,2.17
2022-09-22T14:49:39.552Z,3.05
2022-09-22T14:52:11.709Z,2.00
2022-09-22T14:54:40.803Z,2.20
2022-09-22T14:57:09.212Z,2.38
2022-09-22T14:59:55.468Z,2.63
2022-09-22T15:02:36.229Z,2.20
2022-09-22T15:05:05.785Z,1.85
2022-09-22T15:07:35.190Z,2.22
2022-09-22T15:10:03.858Z,2.30
2022-09-22T15:12:39.175Z,2.63
2022-09-22T15:15:17.319Z,1.85
2022-09-22T15:18:02.902Z,2.80
2022-09-22T15:20:38.764Z,2.20
2022-09-22T15:23:09.057Z,2.30
2022-09-22T15:25:36.892Z,2.55
2022-09-22T15:28:07.607Z,1.98
2022-09-22T15:30:35.215Z,2.58
2022-09-22T15:33:04.896Z,2.40
2022-09-22T15:35:37.405Z,2.95
2022-09-22T15:38:07.529Z,2.15
2022-09-22T15:40:37.260Z,2.42
2022-09-22T15:43:13.100Z,2.80
2022-09-22T15:45:48.645Z,2.13
2022-09-22T15:48:35.006Z,2.63
2022-09-22T15:51:05.592Z,3.42
2022-09-22T15:53:33.717Z,4.18
2022-09-22T15:56:03.299Z,3.83
2022-09-22T15:58:33.915Z,5.30
2022-09-22T16:01:02.342Z,5.25
2022-09-22T16:03:31.483Z,5.00
2022-09-22T16:06:00.819Z,4.90
2022-09-22T16:08:31.489Z,4.72
2022-09-22T16:11:00.976Z,4.18
2022-09-22T16:13:29.028Z,4.38
2022-09-22T16:15:57.232Z,5.00
2022-09-22T16:18:24.904Z,4.95
2022-09-22T16:20:52.624Z,5.03
2022-09-22T16:23:20.812Z,4.70
2022-09-22T16:25:54.525Z,4.20
2022-09-22T16:28:22.173Z,4.40
2022-09-22T16:30:51.641Z,4.47
2022-09-22T16:33:19.310Z,4.32
2022-09-22T16:35:47.297Z,4.63
2022-09-22T16:38:15.754Z,4.70
2022-09-22T16:40:44.469Z,4.50
2022-09-22T16:43:13.667Z,4.43
2022-09-22T16:45:58.634Z,4.38
2022-09-22T16:48:27.543Z,5.22
2022-09-22T16:50:55.968Z,5.38
2022-09-22T16:53:24.347Z,6.47
2022-09-22T16:55:52.923Z,6.97
2022-09-22T16:58:24.986Z,6.88
2022-09-22T17:00:52.981Z,7.18
2022-09-22T17:03:23.908Z,7.03
2022-09-22T17:06:02.012Z,6.40
2022-09-22T17:08:29.930Z,6.80
2022-09-22T17:10:57.661Z,5.93
2022-09-22T17:13:30.697Z,6.68
2022-09-22T17:16:10.092Z,6.75
2022-09-22T17:18:40.682Z,5.65
2022-09-22T17:21:09.266Z,5.65
2022-09-22T17:23:37.776Z,4.75
2022-09-22T17:26:07.633Z,5.57
2022-09-22T17:28:36.690Z,5.03
2022-09-22T17:31:06.584Z,5.35
2022-09-22T17:33:36.972Z,5.15
2022-09-22T17:36:14.273Z,5.07
2022-09-22T17:38:42.016Z,4.72
2022-09-22T17:41:10.452Z,5.10
2022-09-22T17:43:40.643Z,4.85
2022-09-22T17:46:08.923Z,5.78
2022-09-22T17:48:54.324Z,4.90
2022-09-22T17:51:45.981Z,5.15
2022-09-22T17:54:36.473Z,5.40
2022-09-22T17:57:05.529Z,4.95
2022-09-22T17:59:36.076Z,4.50
2022-09-22T18:02:04.828Z,5.20
2022-09-22T18:04:32.724Z,6.13
2022-09-22T18:07:02.828Z,4.72
2022-09-22T18:09:33.312Z,4.45
2022-09-22T18:12:01.304Z,4.22
2022-09-22T18:14:30.929Z,3.90
2022-09-22T18:17:00.874Z,4.90
2022-09-22T18:19:36.298Z,4.40
2022-09-22T18:22:12.409Z,3.60
2022-09-22T18:24:42.059Z,4.30
2022-09-22T18:27:09.906Z,4.10
2022-09-22T18:29:37.728Z,4.00
2022-09-22T18:32:06.987Z,4.47
2022-09-22T18:34:34.687Z,4.13
2022-09-22T18:37:03.402Z,5.53
2022-09-22T18:39:31.412Z,4.32
2022-09-22T18:42:01.990Z,4.60
2022-09-22T18:44:29.886Z,4.97
2022-09-22T18:47:02.610Z,4.57
2022-09-22T18:49:35.875Z,4.00
2022-09-22T18:52:07.354Z,4.30
2022-09-22T18:54:35.486Z,3.88
2022-09-22T18:57:04.450Z,3.85
2022-09-22T18:59:32.339Z,3.60
2022-09-22T19:02:00.192Z,3.85
2022-09-22T19:04:28.264Z,3.53
2022-09-22T19:07:16.161Z,3.78
2022-09-22T19:09:44.608Z,3.85
2022-09-22T19:12:12.682Z,4.13
2022-09-22T19:14:42.097Z,3.97
2022-09-22T19:17:11.163Z,4.43
2022-09-22T19:19:42.358Z,5.25
2022-09-22T19:22:16.342Z,3.95
2022-09-22T19:24:46.396Z,4.18
2022-09-22T19:27:14.974Z,4.25
2022-09-22T19:29:43.261Z,4.78
2022-09-22T19:32:11.045Z,4.63
2022-09-22T19:34:38.762Z,3.90
2022-09-22T19:37:07.067Z,4.35
2022-09-22T19:39:39.321Z,3.90
2022-09-22T19:42:07.735Z,4.18
2022-09-22T19:44:35.511Z,4.32
2022-09-22T19:47:03.117Z,4.05
2022-09-22T19:49:31.435Z,3.75
2022-09-22T19:51:59.086Z,4.50
2022-09-22T19:54:27.207Z,4.53
2022-09-22T19:56:56.227Z,4.32
2022-09-22T19:59:31.172Z,4.55
2022-09-22T20:01:58.967Z,4.70
2022-09-22T20:04:39.791Z,4.00
2022-09-22T20:07:09.201Z,5.10
2022-09-22T20:09:37.111Z,4.75
2022-09-22T20:12:06.812Z,5.07
2022-09-22T20:14:34.672Z,5.13
2022-09-22T20:17:04.171Z,5.20
2022-09-22T20:19:32.509Z,4.22
2022-09-22T20:22:18.607Z,5.10
2022-09-22T20:24:54.192Z,4.45
2022-09-22T20:27:25.424Z,4.32
2022-09-22T20:29:57.122Z,4.85
2022-09-22T20:32:26.144Z,4.88
2022-09-22T20:34:54.137Z,5.05
2022-09-22T20:37:21.909Z,4.50
2022-09-22T20:39:49.844Z,4.70
2022-09-22T20:42:18.204Z,5.53
2022-09-22T20:44:49.138Z,4.88
2022-09-22T20:47:17.672Z,4.93
2022-09-22T20:49:50.636Z,4.40
2022-09-22T20:52:20.920Z,4.35
2022-09-22T20:54:49.141Z,4.30
2022-09-22T20:57:22.151Z,4.18
2022-09-22T20:59:51.237Z,4.43
2022-09-22T21:02:19.302Z,4.43
2022-09-22T21:04:47.034Z,4.30
2022-09-22T21:07:14.736Z,3.70
2022-09-22T21:09:59.904Z,4.25
2022-09-22T21:12:31.288Z,4.20
2022-09-22T21:15:03.625Z,4.28
2022-09-22T21:17:32.933Z,4.63
2022-09-22T21:20:00.594Z,4.40
2022-09-22T21:22:28.933Z,3.85
2022-09-22T21:24:58.457Z,4.28
2022-09-22T21:27:26.305Z,4.32
2022-09-22T21:30:18.269Z,4.65
2022-09-22T21:32:48.778Z,4.60
2022-09-22T21:35:17.388Z,4.35
2022-09-22T21:37:48.543Z,5.35
2022-09-22T21:40:17.871Z,4.03
2022-09-22T21:42:48.583Z,4.65
2022-09-22T21:45:18.437Z,3.92
2022-09-22T21:47:46.043Z,3.90
2022-09-22T21:50:14.180Z,4.82
2022-09-22T21:52:41.791Z,3.90
2022-09-22T21:55:09.652Z,4.50
2022-09-22T21:57:37.356Z,4.68
2022-09-22T22:00:05.951Z,3.78
2022-09-22T22:02:54.943Z,4.38
2022-09-22T22:05:22.612Z,4.63
2022-09-22T22:07:50.608Z,4.20
2022-09-22T22:10:19.234Z,4.15
2022-09-22T22:12:47.313Z,4.38
2022-09-22T22:15:15.053Z,3.83
2022-09-22T22:17:44.091Z,3.95
2022-09-22T22:20:11.734Z,4.00
2022-09-22T22:22:39.613Z,4.63
2022-09-22T22:25:08.322Z,4.45
2022-09-22T22:27:36.025Z,4.07
2022-09-22T22:30:03.800Z,4.22
2022-09-22T22:32:31.555Z,4.35
2022-09-22T22:35:00.790Z,4.57
2022-09-22T22:37:28.885Z,4.32
2022-09-22T22:40:00.184Z,4.25
2022-09-22T22:42:27.887Z,4.90
2022-09-22T22:44:55.559Z,4.68
2022-09-22T22:47:23.344Z,4.53
2022-09-22T22:49:51.522Z,4.30
2022-09-22T22:52:20.566Z,4.60
2022-09-22T22:54:48.366Z,6.63
2022-09-22T22:57:16.026Z,4.78
2022-09-22T22:59:43.810Z,4.60
2022-09-22T23:02:12.673Z,4.80
2022-09-22T23:04:40.387Z,5.35
2022-09-22T23:07:08.085Z,4.80
2022-09-22T23:09:37.117Z,4.90
2022-09-22T23:12:04.825Z,5.07
2022-09-22T23:14:32.435Z,5.25
2022-09-22T23:17:00.678Z,4.57
2022-09-22T23:19:28.266Z,5.07
2022-09-22T23:21:55.911Z,5.38
2022-09-22T23:24:23.617Z,5.25
2022-09-22T23:26:52.666Z,6.28
2022-09-22T23:29:20.277Z,5.57
2022-09-22T23:31:48.789Z,5.40
2022-09-22T23:34:16.479Z,5.47
2022-09-22T23:36:44.891Z,5.90
2022-09-22T23:39:13.460Z,5.78
2022-09-22T23:41:43.449Z,6.25
2022-09-22T23:44:12.513Z,5.57
2022-09-22T23:46:40.302Z,5.95
2022-09-22T23:49:08.097Z,5.25
2022-09-22T23:51:35.741Z,5.03
2022-09-22T23:54:03.414Z,5.18
2022-09-22T23:56:31.215Z,5.45
2022-09-22T23:58:58.864Z,5.47
